createdAt,value
2023-10-03T00:00:26.406Z,5.41
2023-10-03T00:02:56.788Z,5.38
2023-10-03T00:05:25.194Z,5.37
2023-10-03T00:07:55.866Z,5.35
2023-10-03T00:10:23.386Z,5.36
2023-10-03T00:12:52.422Z,5.37
2023-10-03T00:15:22.271Z,5.35
2023-10-03T00:17:49.311Z,5.32
2023-10-03T00:20:17.582Z,5.33
2023-10-03T00:22:45.760Z,5.34
2023-10-03T00:25:20.632Z,5.33
2023-10-03T00:27:52.563Z,5.37
2023-10-03T00:30:20.797Z,5.41
2023-10-03T00:32:54.156Z,5.43
2023-10-03T00:35:21.776Z,5.48
2023-10-03T00:37:51.998Z,5.51
2023-10-03T00:40:23.107Z,5.53
2023-10-03T00:42:50.581Z,5.60
2023-10-03T00:45:22.708Z,5.68
2023-10-03T00:47:50.867Z,5.75
2023-10-03T00:50:20.809Z,5.81
2023-10-03T00:52:56.782Z,5.88
2023-10-03T00:55:28.206Z,5.96
2023-10-03T00:58:08.425Z,6.04
2023-10-03T01:00:42.965Z,6.08
2023-10-03T01:03:33.190Z,6.08
2023-10-03T01:06:11.710Z,6.16
2023-10-03T01:08:47.576Z,6.19
2023-10-03T01:11:20.270Z,6.24
2023-10-03T01:14:00.038Z,6.31
2023-10-03T01:16:33.356Z,6.38
2023-10-03T01:19:11.187Z,6.44
2023-10-03T01:21:39.864Z,6.41
2023-10-03T01:24:07.646Z,6.40
2023-10-03T01:26:35.192Z,6.43
2023-10-03T01:29:04.094Z,6.47
2023-10-03T01:31:31.835Z,6.47
2023-10-03T01:33:58.556Z,6.43
2023-10-03T01:36:28.008Z,6.38
2023-10-03T01:38:54.684Z,6.33
2023-10-03T01:41:21.529Z,6.34
2023-10-03T01:43:48.200Z,6.39
2023-10-03T01:46:15.069Z,6.46
2023-10-03T01:48:43.730Z,6.49
2023-10-03T01:51:10.921Z,6.50
2023-10-03T01:53:41.124Z,6.52
2023-10-03T01:56:08.554Z,6.52
2023-10-03T01:58:35.678Z,6.53
2023-10-03T02:01:02.555Z,6.49
2023-10-03T02:03:32.365Z,6.45
2023-10-03T02:05:59.096Z,6.40
2023-10-03T02:08:27.121Z,6.41
2023-10-03T02:10:54.568Z,6.37
2023-10-03T02:13:24.562Z,6.37
2023-10-03T02:15:54.303Z,6.38
2023-10-03T02:18:22.712Z,6.38
2023-10-03T02:20:54.844Z,6.37
2023-10-03T02:23:25.131Z,6.42
2023-10-03T02:25:56.687Z,6.48
2023-10-03T02:28:30.095Z,6.52
2023-10-03T02:30:58.700Z,6.56
2023-10-03T02:33:25.688Z,6.58
2023-10-03T02:35:52.680Z,6.63
2023-10-03T02:38:26.521Z,6.68
2023-10-03T02:41:03.185Z,6.74
2023-10-03T02:43:35.403Z,6.77
2023-10-03T02:46:08.438Z,6.80
2023-10-03T02:48:37.070Z,6.81
2023-10-03T02:51:04.153Z,6.84
2023-10-03T02:53:32.369Z,6.85
2023-10-03T02:56:00.071Z,6.87
2023-10-03T02:58:26.762Z,6.89
2023-10-03T03:00:57.446Z,6.91
2023-10-03T03:03:31.497Z,7.00
2023-10-03T03:06:00.352Z,7.06
2023-10-03T03:08:30.258Z,7.08
2023-10-03T03:10:58.964Z,7.13
2023-10-03T03:13:30.905Z,7.11
2023-10-03T03:16:01.408Z,7.09
2023-10-03T03:18:33.989Z,7.11
2023-10-03T03:21:03.140Z,7.10
2023-10-03T03:23:36.330Z,7.11
2023-10-03T03:26:18.607Z,7.15
2023-10-03T03:28:51.849Z,7.12
2023-10-03T03:31:27.462Z,7.14
2023-10-03T03:33:59.601Z,7.16
2023-10-03T03:36:36.978Z,7.21
2023-10-03T03:39:15.932Z,7.20
2023-10-03T03:41:44.073Z,7.21
2023-10-03T03:44:14.250Z,7.26
2023-10-03T03:46:42.248Z,7.30
2023-10-03T03:49:21.734Z,7.34
2023-10-03T03:51:50.628Z,7.32
2023-10-03T03:54:17.924Z,7.35
2023-10-03T03:56:44.530Z,7.39
2023-10-03T03:59:12.709Z,7.42
2023-10-03T04:01:39.749Z,7.50
2023-10-03T04:04:09.399Z,7.58
2023-10-03T04:06:37.206Z,7.57
2023-10-03T04:09:09.314Z,7.56
2023-10-03T04:11:37.550Z,7.62
2023-10-03T04:14:07.060Z,7.71
2023-10-03T04:16:41.090Z,7.73
2023-10-03T04:19:10.060Z,7.77
2023-10-03T04:21:37.769Z,7.86
2023-10-03T04:24:06.798Z,7.88
2023-10-03T04:26:35.587Z,7.97
2023-10-03T04:29:03.106Z,8.11
2023-10-03T04:31:29.896Z,8.18
2023-10-03T04:33:57.797Z,8.22
2023-10-03T04:36:27.125Z,8.29
2023-10-03T04:38:54.724Z,8.41
2023-10-03T04:41:22.885Z,8.42
2023-10-03T04:43:51.455Z,8.49
2023-10-03T04:46:18.480Z,8.54
2023-10-03T04:48:45.262Z,8.64
2023-10-03T04:51:15.519Z,8.82
2023-10-03T04:53:42.213Z,8.98
2023-10-03T04:56:10.476Z,9.09
2023-10-03T04:58:37.235Z,9.14
2023-10-03T05:01:04.280Z,9.24
2023-10-03T05:03:32.002Z,9.31
2023-10-03T05:05:58.844Z,9.36
2023-10-03T05:08:26.409Z,9.44
2023-10-03T05:10:55.929Z,9.49
2023-10-03T05:13:23.059Z,9.56
2023-10-03T05:15:49.825Z,9.63
2023-10-03T05:18:17.350Z,9.61
2023-10-03T05:20:44.322Z,9.51
2023-10-03T05:23:11.707Z,9.52
2023-10-03T05:25:39.142Z,9.57
2023-10-03T05:28:06.758Z,9.55
2023-10-03T05:30:36.398Z,9.65
